Time;durP1;ratioP1;P1;durP2;ratioP2;P2;SDS_P1;SDS_P2;PMS_P1;PMS_P2;Temp;Humidity;BMP_temperature;BMP_pressure;BME280_temperature;BME280_humidity;BME280_pressure;Samples;Min_cycle;Max_cycle;Signal;HPM_P1;HPM_P2
2021/04/03 00:02:02;;;;;;;7.90;2.20;;;7.20;99.90;;;;;;1879019;76;21132;-80
2021/04/03 00:04:28;;;;;;;3.92;2.10;;;7.10;99.90;;;;;;1878909;76;21553;-80
2021/04/03 00:06:54;;;;;;;9.13;2.55;;;7.10;99.90;;;;;;1875663;76;21161;-81
2021/04/03 00:09:20;;;;;;;5.25;2.37;;;7.00;99.90;;;;;;1867581;76;21206;-81
2021/04/03 00:11:46;;;;;;;2.65;2.27;;;7.10;99.90;;;;;;1870852;75;21221;-81
2021/04/03 00:14:12;;;;;;;4.47;2.30;;;7.10;99.90;;;;;;1872871;75;21084;-80
2021/04/03 00:16:39;;;;;;;8.00;2.72;;;7.10;99.90;;;;;;1862616;75;21097;-79
2021/04/03 00:19:05;;;;;;;7.75;3.08;;;6.90;99.90;;;;;;1880388;76;21084;-79
2021/04/03 00:21:31;;;;;;;3.75;2.80;;;7.00;99.90;;;;;;1873299;75;21053;-79
2021/04/03 00:23:57;;;;;;;4.12;2.25;;;7.00;99.90;;;;;;1864747;76;21174;-80
2021/04/03 00:26:23;;;;;;;4.70;2.65;;;7.00;99.90;;;;;;1879613;75;21087;-79
2021/04/03 00:28:49;;;;;;;6.47;2.42;;;7.00;99.90;;;;;;1874602;75;21080;-79
2021/04/03 00:31:15;;;;;;;5.67;2.70;;;6.90;99.90;;;;;;1864856;75;21089;-79
2021/04/03 00:33:42;;;;;;;11.22;2.72;;;6.80;99.90;;;;;;1860281;75;21088;-79
2021/04/03 00:36:08;;;;;;;6.97;3.17;;;6.90;99.90;;;;;;1869513;75;21104;-80
2021/04/03 00:38:34;;;;;;;4.70;3.25;;;6.80;99.90;;;;;;1879375;76;21057;-80
2021/04/03 00:41:00;;;;;;;3.85;2.60;;;6.80;99.90;;;;;;1876501;75;21569;-80
2021/04/03 00:43:26;;;;;;;8.58;2.95;;;6.70;99.90;;;;;;1881948;76;21534;-80
2021/04/03 00:45:52;;;;;;;10.38;2.85;;;6.70;99.90;;;;;;1878405;76;21083;-80
2021/04/03 00:48:18;;;;;;;4.90;2.92;;;6.70;99.90;;;;;;1873385;76;21092;-80
2021/04/03 00:50:45;;;;;;;7.42;3.30;;;6.70;99.90;;;;;;1871431;76;21087;-79
2021/04/03 00:53:11;;;;;;;6.12;2.80;;;6.70;99.90;;;;;;1871550;75;21153;-79
2021/04/03 00:55:37;;;;;;;5.97;3.10;;;6.70;99.90;;;;;;1856483;76;21513;-80
2021/04/03 00:58:03;;;;;;;3.83;3.02;;;6.60;99.90;;;;;;1868878;75;21441;-80
2021/04/03 01:00:29;;;;;;;8.73;3.00;;;6.70;99.90;;;;;;1868184;75;21483;-80
2021/04/03 01:02:55;;;;;;;10.93;3.62;;;6.70;99.90;;;;;;1881644;75;21076;-80
2021/04/03 01:05:21;;;;;;;7.40;3.30;;;6.70;99.90;;;;;;1874037;76;21075;-80
2021/04/03 01:07:47;;;;;;;7.40;3.10;;;6.60;99.90;;;;;;1862980;75;21210;-80
2021/04/03 01:10:14;;;;;;;5.58;2.90;;;6.60;99.90;;;;;;1875377;76;21117;-80
2021/04/03 01:12:40;;;;;;;5.30;2.87;;;6.60;99.90;;;;;;1872578;76;21083;-79
2021/04/03 01:15:06;;;;;;;5.95;2.90;;;6.70;99.90;;;;;;1874104;76;21085;-78
2021/04/03 01:17:33;;;;;;;5.05;2.80;;;6.60;99.90;;;;;;1864133;76;21493;-79
2021/04/03 01:19:59;;;;;;;6.25;2.70;;;6.60;99.90;;;;;;1875904;76;21202;-79
2021/04/03 01:22:25;;;;;;;4.33;2.52;;;6.60;99.90;;;;;;1877511;76;21236;-80
2021/04/03 01:24:51;;;;;;;6.50;2.75;;;6.60;99.90;;;;;;1867789;75;21197;-80
2021/04/03 01:27:17;;;;;;;4.95;3.47;;;6.50;99.90;;;;;;1871988;76;21136;-79
2021/04/03 01:29:43;;;;;;;5.72;2.90;;;6.70;99.90;;;;;;1862367;76;21097;-79
2021/04/03 01:32:09;;;;;;;5.72;2.60;;;6.70;99.90;;;;;;1867318;75;21072;-80
2021/04/03 01:34:35;;;;;;;5.08;2.62;;;6.70;99.90;;;;;;1874272;76;21545;-80
2021/04/03 01:37:06;;;;;;;7.67;2.52;;;6.60;99.90;;;;;;1869839;75;21095;-80
2021/04/03 01:39:31;;;;;;;4.65;2.87;;;6.60;99.90;;;;;;1875971;75;21161;-80
2021/04/03 01:41:57;;;;;;;4.75;2.80;;;6.70;99.90;;;;;;1882125;76;21087;-79
2021/04/03 01:44:23;;;;;;;6.53;2.90;;;6.50;99.90;;;;;;1883663;76;21080;-80
2021/04/03 01:46:49;;;;;;;9.50;2.92;;;6.50;99.90;;;;;;1870514;75;21061;-80
2021/04/03 01:49:15;;;;;;;5.58;2.95;;;6.60;99.90;;;;;;1863448;75;21159;-80
2021/04/03 01:51:41;;;;;;;5.83;2.98;;;6.50;99.90;;;;;;1882206;75;21095;-80
2021/04/03 01:54:10;;;;;;;5.05;2.98;;;6.60;99.90;;;;;;1874701;75;21087;-79
2021/04/03 01:56:37;;;;;;;3.50;2.35;;;6.60;99.90;;;;;;1867170;76;21201;-79
2021/04/03 01:59:03;;;;;;;11.10;2.75;;;6.60;99.90;;;;;;1885027;75;21084;-79
2021/04/03 02:01:29;;;;;;;8.00;2.45;;;6.70;99.90;;;;;;1874310;76;21044;-80
2021/04/03 02:03:55;;;;;;;8.93;2.83;;;6.70;99.90;;;;;;1865712;76;21201;-79
2021/04/03 02:06:21;;;;;;;4.58;2.30;;;6.70;99.90;;;;;;1865250;75;21084;-80
2021/04/03 02:08:48;;;;;;;7.30;2.62;;;6.70;99.90;;;;;;1874173;75;21169;-79
2021/04/03 02:11:14;;;;;;;4.40;2.40;;;6.70;99.90;;;;;;1864599;76;21283;-80
2021/04/03 02:13:41;;;;;;;3.80;2.35;;;6.70;99.90;;;;;;1875675;76;21215;-80
2021/04/03 02:16:07;;;;;;;4.05;2.42;;;6.70;99.90;;;;;;1880762;76;21205;-80
2021/04/03 02:18:33;;;;;;;7.80;2.60;;;6.60;99.90;;;;;;1856183;76;21048;-79
2021/04/03 02:20:59;;;;;;;7.15;2.35;;;6.60;99.90;;;;;;1866119;76;21216;-80
2021/04/03 02:23:25;;;;;;;5.12;2.42;;;6.50;99.90;;;;;;1865811;75;21543;-81
2021/04/03 02:25:51;;;;;;;3.98;2.50;;;6.50;99.90;;;;;;1875801;76;21473;-80
2021/04/03 02:28:17;;;;;;;4.12;2.58;;;6.40;99.90;;;;;;1867273;75;21480;-80
2021/04/03 02:30:44;;;;;;;4.85;2.70;;;6.40;99.90;;;;;;1871373;76;21178;-80
2021/04/03 02:33:10;;;;;;;8.78;2.40;;;6.40;99.90;;;;;;1868339;76;21079;-80
2021/04/03 02:35:36;;;;;;;3.35;2.17;;;6.40;99.90;;;;;;1867332;75;21088;-80
2021/04/03 02:38:02;;;;;;;5.25;2.90;;;6.30;99.90;;;;;;1875937;76;21145;-80
2021/04/03 02:40:28;;;;;;;3.30;2.30;;;6.30;99.90;;;;;;1875308;76;21076;-80
2021/04/03 02:42:54;;;;;;;6.30;2.77;;;6.30;99.90;;;;;;1878496;76;21196;-80
2021/04/03 02:45:20;;;;;;;9.65;2.80;;;6.30;99.90;;;;;;1874766;75;21057;-80
2021/04/03 02:47:46;;;;;;;4.58;2.17;;;6.30;99.90;;;;;;1866177;76;21187;-80
2021/04/03 02:50:13;;;;;;;4.85;2.27;;;6.10;99.90;;;;;;1871439;76;21149;-80
2021/04/03 02:52:39;;;;;;;15.13;3.05;;;6.10;99.90;;;;;;1875496;75;21088;-79
2021/04/03 02:55:05;;;;;;;4.25;2.60;;;6.10;99.90;;;;;;1874440;75;21157;-80
2021/04/03 02:57:31;;;;;;;7.85;2.77;;;6.10;99.90;;;;;;1877136;76;21056;-80
2021/04/03 02:59:57;;;;;;;6.08;2.92;;;6.10;99.90;;;;;;1880502;76;21257;-79
2021/04/03 03:02:23;;;;;;;6.87;2.47;;;6.20;99.90;;;;;;1879200;76;21524;-80
2021/04/03 03:04:49;;;;;;;5.67;2.20;;;6.20;99.90;;;;;;1878954;76;21075;-80
2021/04/03 03:07:15;;;;;;;3.37;2.15;;;6.20;99.90;;;;;;1879545;76;21153;-80
2021/04/03 03:09:42;;;;;;;3.52;2.15;;;6.20;99.90;;;;;;1863335;76;21076;-80
2021/04/03 03:12:10;;;;;;;6.15;2.50;;;6.20;99.90;;;;;;1878213;76;21508;-80
2021/04/03 03:14:36;;;;;;;5.22;2.47;;;6.10;99.90;;;;;;1880946;74;21186;-80
2021/04/03 03:17:03;;;;;;;3.27;2.45;;;6.00;99.90;;;;;;1866118;76;21213;-80
2021/04/03 03:19:29;;;;;;;3.80;2.35;;;6.10;99.90;;;;;;1878608;76;21092;-80
2021/04/03 03:21:56;;;;;;;5.20;2.60;;;6.00;99.90;;;;;;1876762;76;21056;-80
2021/04/03 03:24:22;;;;;;;4.33;2.50;;;6.00;99.90;;;;;;1875379;76;21149;-80
2021/04/03 03:26:48;;;;;;;4.65;2.40;;;6.00;99.90;;;;;;1865885;76;21075;-80
2021/04/03 03:29:14;;;;;;;7.62;2.65;;;6.10;99.90;;;;;;1884150;75;21266;-80
2021/04/03 03:31:40;;;;;;;5.78;2.83;;;6.10;99.90;;;;;;1878882;76;21197;-80
2021/04/03 03:34:06;;;;;;;3.98;2.85;;;6.10;99.90;;;;;;1879193;76;21053;-80
2021/04/03 03:36:32;;;;;;;4.72;2.35;;;6.10;99.90;;;;;;1861813;76;21075;-80
2021/04/03 03:38:58;;;;;;;6.35;2.62;;;6.00;99.90;;;;;;1876901;76;21088;-80
2021/04/03 03:41:26;;;;;;;7.72;2.72;;;6.00;99.90;;;;;;1878623;76;21088;-80
2021/04/03 03:43:54;;;;;;;5.20;2.65;;;6.00;99.90;;;;;;1872451;75;21159;-80
2021/04/03 03:46:20;;;;;;;14.25;2.60;;;6.00;99.90;;;;;;1869329;76;21086;-79
2021/04/03 03:48:46;;;;;;;3.75;2.10;;;5.80;99.90;;;;;;1877497;76;21083;-80
2021/04/03 03:51:12;;;;;;;5.67;2.65;;;5.80;99.90;;;;;;1874945;76;21084;-80
2021/04/03 03:53:38;;;;;;;3.98;2.30;;;5.70;99.90;;;;;;1872386;75;21165;-79
2021/04/03 03:56:04;;;;;;;2.85;2.00;;;5.70;99.90;;;;;;1875286;76;21052;-80
2021/04/03 03:58:30;;;;;;;2.98;2.22;;;5.60;99.90;;;;;;1864306;76;21502;-79
2021/04/03 04:00:56;;;;;;;1.90;1.70;;;5.70;99.90;;;;;;1875460;75;21530;-81
2021/04/03 04:03:23;;;;;;;4.05;2.25;;;5.60;99.90;;;;;;1873249;75;21488;-79
2021/04/03 04:05:49;;;;;;;5.97;2.45;;;5.60;99.90;;;;;;1871439;76;21061;-80
2021/04/03 04:08:17;;;;;;;6.62;2.05;;;5.60;99.90;;;;;;1868714;76;21083;-79
2021/04/03 04:10:43;;;;;;;5.83;1.85;;;5.60;99.90;;;;;;1866035;75;21173;-79
2021/04/03 04:13:09;;;;;;;9.25;1.87;;;5.60;99.90;;;;;;1859259;75;21096;-80
2021/04/03 04:15:35;;;;;;;4.28;2.17;;;5.60;99.90;;;;;;1871724;75;21189;-80
2021/04/03 04:18:01;;;;;;;9.20;2.62;;;5.60;99.90;;;;;;1864054;76;21088;-80
2021/04/03 04:20:29;;;;;;;6.97;2.00;;;5.50;99.90;;;;;;1873106;76;21154;-80
2021/04/03 04:22:56;;;;;;;9.60;2.10;;;5.40;99.90;;;;;;1869537;76;21113;-80
2021/04/03 04:25:22;;;;;;;2.77;1.77;;;5.40;99.90;;;;;;1860809;75;21282;-81
2021/04/03 04:27:48;;;;;;;10.98;2.12;;;5.30;99.90;;;;;;1872974;76;21092;-80
2021/04/03 04:30:14;;;;;;;4.15;1.92;;;5.20;99.90;;;;;;1875736;76;21139;-80
2021/04/03 04:32:40;;;;;;;3.75;1.70;;;5.20;99.90;;;;;;1874005;76;21569;-80
2021/04/03 04:35:07;;;;;;;4.45;2.08;;;5.20;99.90;;;;;;1872584;75;21480;-79
2021/04/03 04:37:33;;;;;;;4.00;2.08;;;5.10;99.90;;;;;;1876677;76;21080;-79
2021/04/03 04:39:59;;;;;;;5.83;2.25;;;5.10;99.90;;;;;;1877914;76;21532;-80
2021/04/03 04:42:25;;;;;;;2.50;1.45;;;5.00;99.90;;;;;;1872171;76;21053;-80
2021/04/03 04:44:51;;;;;;;3.62;1.52;;;4.90;99.90;;;;;;1869754;76;21160;-80
2021/04/03 04:47:17;;;;;;;13.75;2.12;;;4.90;99.90;;;;;;1874903;75;21139;-79
2021/04/03 04:49:43;;;;;;;7.67;2.08;;;4.90;99.90;;;;;;1881504;75;21079;-80
2021/04/03 04:52:09;;;;;;;2.52;1.67;;;4.90;99.90;;;;;;1880166;76;21079;-79
2021/04/03 04:54:35;;;;;;;6.47;1.85;;;4.90;99.90;;;;;;1881211;76;21284;-79
2021/04/03 04:57:02;;;;;;;3.52;1.80;;;4.90;99.90;;;;;;1872350;75;21123;-80
2021/04/03 04:59:28;;;;;;;5.30;2.05;;;5.00;99.90;;;;;;1867495;76;21146;-80
2021/04/03 05:01:54;;;;;;;3.92;1.95;;;4.90;99.90;;;;;;1869511;76;21170;-80
2021/04/03 05:04:20;;;;;;;2.58;2.02;;;5.00;99.90;;;;;;1870024;76;21099;-80
2021/04/03 05:06:46;;;;;;;4.83;1.82;;;5.00;99.90;;;;;;1869162;76;21092;-80
2021/04/03 05:09:12;;;;;;;7.20;1.92;;;5.10;99.90;;;;;;1873959;75;21555;-80
2021/04/03 05:11:38;;;;;;;2.12;1.87;;;5.10;99.90;;;;;;1871533;75;21496;-80
2021/04/03 05:14:05;;;;;;;3.55;2.08;;;5.20;99.90;;;;;;1868456;76;21088;-80
2021/04/03 05:16:31;;;;;;;2.67;1.60;;;5.20;99.90;;;;;;1869744;76;21076;-79
2021/04/03 05:18:57;;;;;;;2.35;1.95;;;5.20;99.90;;;;;;1885268;75;21099;-80
2021/04/03 05:21:23;;;;;;;4.35;2.30;;;5.20;99.90;;;;;;1878191;75;21544;-80
2021/04/03 05:23:49;;;;;;;3.45;1.72;;;5.20;99.90;;;;;;1881340;75;21440;-79
2021/04/03 05:26:15;;;;;;;3.12;2.10;;;5.20;99.90;;;;;;1874534;75;21481;-80
2021/04/03 05:28:41;;;;;;;4.90;2.10;;;5.20;99.90;;;;;;1880313;76;21247;-80
2021/04/03 05:31:07;;;;;;;6.22;1.98;;;5.30;99.90;;;;;;1872152;76;21083;-80
2021/04/03 05:33:34;;;;;;;6.03;1.95;;;5.30;99.90;;;;;;1879602;76;21080;-80
2021/04/03 05:36:00;;;;;;;6.65;2.27;;;5.30;99.90;;;;;;1871162;75;21087;-80
2021/04/03 05:38:26;;;;;;;2.50;1.67;;;5.30;99.90;;;;;;1866996;75;21076;-80
2021/04/03 05:40:53;;;;;;;7.37;2.77;;;5.40;99.90;;;;;;1868412;76;21099;-80
2021/04/03 05:43:19;;;;;;;4.05;2.10;;;5.60;99.90;;;;;;1874649;76;21100;-80
2021/04/03 05:45:45;;;;;;;4.70;1.95;;;5.60;99.90;;;;;;1877685;76;21092;-80
2021/04/03 05:48:11;;;;;;;4.08;1.98;;;5.80;99.90;;;;;;1874545;76;21150;-78
2021/04/03 05:50:38;;;;;;;3.95;2.15;;;5.90;99.90;;;;;;1878862;75;21597;-78
2021/04/03 05:53:04;;;;;;;5.15;2.33;;;6.00;99.90;;;;;;1876746;75;21491;-71
2021/04/03 05:55:30;;;;;;;3.17;1.45;;;6.00;99.90;;;;;;1873735;76;21497;-70
2021/04/03 05:57:56;;;;;;;4.87;2.00;;;6.10;99.90;;;;;;1856389;75;21623;-71
2021/04/03 06:00:22;;;;;;;1.98;1.40;;;6.20;99.90;;;;;;1866412;75;21088;-71
2021/04/03 06:02:48;;;;;;;2.95;1.85;;;6.30;99.90;;;;;;1881003;75;21162;-72
2021/04/03 06:05:14;;;;;;;4.92;1.87;;;6.30;99.90;;;;;;1866066;76;21084;-73
2021/04/03 06:07:40;;;;;;;4.90;1.70;;;6.40;99.90;;;;;;1867663;75;21056;-74
2021/04/03 06:10:07;;;;;;;4.37;1.82;;;6.30;99.90;;;;;;1875341;76;21166;-74
2021/04/03 06:12:33;;;;;;;2.55;1.35;;;6.30;99.90;;;;;;1875085;76;21154;-74
2021/04/03 06:14:59;;;;;;;3.98;2.17;;;6.30;99.90;;;;;;1873511;76;21161;-74
2021/04/03 06:17:25;;;;;;;5.12;2.00;;;6.30;99.90;;;;;;1869459;76;21553;-74
2021/04/03 06:19:51;;;;;;;7.55;2.00;;;6.30;99.90;;;;;;1863247;75;21578;-74
2021/04/03 06:22:17;;;;;;;2.30;1.50;;;6.20;99.90;;;;;;1878483;76;21453;-75
2021/04/03 06:24:43;;;;;;;2.35;1.12;;;6.10;99.90;;;;;;1879386;75;21495;-74
2021/04/03 06:27:09;;;;;;;2.00;1.50;;;6.10;99.90;;;;;;1876130;76;21243;-75
2021/04/03 06:29:36;;;;;;;3.77;2.20;;;6.20;99.90;;;;;;1864425;76;21169;-75
2021/04/03 06:32:04;;;;;;;3.10;1.52;;;6.10;99.90;;;;;;1887930;76;21146;-75
2021/04/03 06:34:30;;;;;;;2.85;1.77;;;6.10;99.90;;;;;;1865463;74;21149;-76
2021/04/03 06:36:56;;;;;;;8.30;1.55;;;6.20;99.90;;;;;;1863594;75;21151;-74
2021/04/03 06:39:22;;;;;;;1.98;1.40;;;6.10;99.90;;;;;;1871943;75;21091;-75
2021/04/03 06:41:48;;;;;;;2.25;1.52;;;6.10;99.90;;;;;;1869890;76;21099;-72
2021/04/03 06:44:14;;;;;;;4.45;1.90;;;6.10;99.90;;;;;;1872804;76;21483;-72
2021/04/03 06:46:40;;;;;;;3.77;1.70;;;6.20;99.90;;;;;;1869630;76;21504;-73
2021/04/03 06:49:07;;;;;;;4.05;1.72;;;6.30;99.90;;;;;;1879400;76;21149;-74
2021/04/03 06:51:33;;;;;;;1.90;1.70;;;6.20;99.90;;;;;;1871796;75;21084;-73
2021/04/03 06:53:59;;;;;;;3.42;1.40;;;6.20;99.90;;;;;;1864150;75;21193;-73
2021/04/03 06:56:25;;;;;;;3.35;1.62;;;6.20;99.90;;;;;;1860285;75;21484;-74
2021/04/03 06:58:51;;;;;;;6.30;1.75;;;6.40;99.90;;;;;;1873718;76;21542;-73
2021/04/03 07:01:17;;;;;;;1.80;1.70;;;6.40;99.90;;;;;;1871559;73;21488;-74
2021/04/03 07:03:43;;;;;;;17.32;1.92;;;6.50;99.90;;;;;;1897576;73;21224;-74
2021/04/03 07:06:10;;;;;;;8.83;1.85;;;6.70;99.90;;;;;;1899977;73;21170;-72
2021/04/03 07:08:36;;;;;;;2.55;1.35;;;6.70;99.90;;;;;;1894208;74;21068;-76
2021/04/03 07:11:02;;;;;;;7.47;1.65;;;6.60;99.90;;;;;;1907919;73;21158;-74
2021/04/03 07:13:28;;;;;;;3.80;1.82;;;6.70;99.90;;;;;;1899277;73;21139;-73
2021/04/03 07:15:54;;;;;;;5.15;1.60;;;6.70;99.90;;;;;;1909239;74;21080;-75
2021/04/03 07:18:20;;;;;;;3.47;1.30;;;6.70;99.90;;;;;;1905392;73;21271;-73
2021/04/03 07:20:46;;;;;;;3.50;1.65;;;6.80;99.90;;;;;;1907428;73;21076;-72
2021/04/03 07:23:12;;;;;;;4.30;1.52;;;6.70;99.90;;;;;;1894766;73;21076;-73
2021/04/03 07:25:39;;;;;;;5.00;1.95;;;6.60;99.90;;;;;;1903716;74;21079;-73
2021/04/03 07:28:05;;;;;;;3.80;1.40;;;6.60;99.90;;;;;;1903075;74;21083;-72
2021/04/03 07:30:31;;;;;;;3.60;1.32;;;6.60;99.90;;;;;;1907471;73;21095;-73
2021/04/03 07:32:57;;;;;;;2.50;1.40;;;6.60;99.90;;;;;;1894282;73;21076;-73
2021/04/03 07:35:23;;;;;;;4.65;1.42;;;6.80;99.90;;;;;;1906600;73;21275;-74
2021/04/03 07:37:49;;;;;;;2.42;1.45;;;6.90;99.90;;;;;;1897283;74;21580;-72
2021/04/03 07:40:15;;;;;;;2.00;1.47;;;7.10;99.90;;;;;;1909636;74;21158;-73
2021/04/03 07:42:42;;;;;;;2.55;1.37;;;7.30;99.90;;;;;;1909694;73;21198;-73
2021/04/03 07:45:08;;;;;;;4.25;1.52;;;7.10;99.90;;;;;;1902461;73;21084;-72
2021/04/03 07:47:34;;;;;;;2.87;1.35;;;7.00;99.90;;;;;;1901787;73;21087;-72
2021/04/03 07:50:00;;;;;;;3.83;1.27;;;7.00;99.90;;;;;;1901215;74;21493;-72
2021/04/03 07:52:26;;;;;;;2.92;1.60;;;7.00;99.90;;;;;;1910539;74;21703;-72
2021/04/03 07:54:52;;;;;;;2.70;1.25;;;7.20;99.90;;;;;;1899567;73;21566;-71
2021/04/03 07:57:18;;;;;;;4.37;1.52;;;7.40;99.90;;;;;;1908353;74;21077;-73
2021/04/03 07:59:51;;;;;;;6.17;1.45;;;7.50;99.90;;;;;;1910007;73;21084;-72
2021/04/03 08:02:12;;;;;;;4.05;1.60;;;7.60;99.90;;;;;;1909609;74;21088;-72
2021/04/03 08:04:38;;;;;;;3.20;1.12;;;7.80;99.90;;;;;;1897970;73;21458;-73
2021/04/03 08:07:04;;;;;;;2.72;1.50;;;7.80;99.90;;;;;;1908912;73;21527;-74
2021/04/03 08:09:31;;;;;;;7.42;1.47;;;7.70;99.90;;;;;;1897445;73;21605;-72
2021/04/03 08:11:57;;;;;;;1.85;1.12;;;8.00;99.90;;;;;;1913194;73;21088;-70
2021/04/03 08:14:25;;;;;;;6.35;1.20;;;8.20;99.90;;;;;;1899479;74;21077;-71
2021/04/03 08:16:51;;;;;;;5.47;1.20;;;8.20;99.90;;;;;;1905462;73;21080;-71
2021/04/03 08:19:18;;;;;;;2.58;1.52;;;8.30;99.90;;;;;;1910735;74;21080;-72
2021/04/03 08:21:44;;;;;;;4.72;1.25;;;8.30;99.90;;;;;;1912173;73;21235;-72
2021/04/03 08:24:10;;;;;;;5.45;1.47;;;8.30;99.90;;;;;;1902261;73;21054;-72
2021/04/03 08:26:36;;;;;;;3.87;1.55;;;8.20;99.90;;;;;;1902184;74;21153;-72
2021/04/03 08:29:02;;;;;;;4.08;1.27;;;8.70;99.90;;;;;;1912179;74;21512;-72
2021/04/03 08:31:28;;;;;;;2.98;1.42;;;8.90;99.90;;;;;;1901536;73;21477;-73
2021/04/03 08:33:54;;;;;;;1.72;1.47;;;8.50;99.90;;;;;;1895200;73;21610;-72
2021/04/03 08:36:20;;;;;;;1.50;1.00;;;8.60;99.90;;;;;;1913367;73;21045;-72
2021/04/03 08:38:46;;;;;;;3.27;1.65;;;8.80;99.90;;;;;;1914893;73;21206;-72
2021/04/03 08:41:13;;;;;;;1.42;1.30;;;8.90;99.90;;;;;;1913231;74;21201;-72
2021/04/03 08:43:39;;;;;;;1.70;1.40;;;9.00;99.90;;;;;;1900846;73;21072;-71
2021/04/03 08:46:05;;;;;;;4.45;1.60;;;8.70;99.90;;;;;;1909015;73;21085;-73
2021/04/03 08:48:31;;;;;;;2.65;1.47;;;9.30;99.90;;;;;;1891160;73;21078;-72
2021/04/03 08:50:57;;;;;;;2.75;1.60;;;9.20;99.90;;;;;;1900675;74;21146;-71
2021/04/03 08:53:23;;;;;;;5.80;1.62;;;9.50;99.90;;;;;;1902906;74;21142;-72
2021/04/03 08:55:51;;;;;;;2.22;1.20;;;9.30;99.90;;;;;;1906474;74;21049;-72
2021/04/03 08:58:17;;;;;;;3.47;1.25;;;9.00;99.90;;;;;;1907126;74;21119;-72
2021/04/03 09:00:43;;;;;;;5.53;1.52;;;9.60;99.90;;;;;;1913332;75;21464;-70
2021/04/03 09:03:09;;;;;;;2.85;1.30;;;9.40;99.90;;;;;;1897921;74;21538;-73
2021/04/03 09:05:36;;;;;;;2.83;1.00;;;9.90;99.90;;;;;;1908596;74;21167;-72
2021/04/03 09:08:02;;;;;;;1.87;1.27;;;10.20;99.90;;;;;;1909856;74;21146;-72
2021/04/03 09:10:28;;;;;;;2.42;1.47;;;10.40;99.90;;;;;;1908258;75;21084;-67
2021/04/03 09:12:54;;;;;;;4.47;1.00;;;10.40;99.90;;;;;;1911182;74;21052;-69
2021/04/03 09:15:20;;;;;;;4.28;1.17;;;10.40;99.90;;;;;;1906972;74;21145;-67
2021/04/03 09:17:46;;;;;;;1.95;1.30;;;9.70;99.90;;;;;;1910542;74;21088;-67
2021/04/03 09:20:14;;;;;;;2.12;1.10;;;9.80;99.90;;;;;;1908730;74;21243;-68
2021/04/03 09:22:40;;;;;;;3.00;1.22;;;9.90;99.90;;;;;;1910470;75;21095;-70
2021/04/03 09:25:07;;;;;;;2.83;1.20;;;10.00;99.90;;;;;;1913473;75;21211;-73
2021/04/03 09:27:33;;;;;;;3.08;1.20;;;10.30;99.90;;;;;;1909023;74;21535;-69
2021/04/03 09:30:06;;;;;;;1.07;0.98;;;10.40;99.90;;;;;;1908682;74;21197;-70
2021/04/03 09:32:32;;;;;;;1.10;1.00;;;10.60;99.90;;;;;;1908856;74;21085;-71
2021/04/03 09:34:58;;;;;;;3.65;1.10;;;10.50;99.90;;;;;;1913408;75;21053;-69
2021/04/03 09:37:24;;;;;;;1.30;1.10;;;10.70;99.90;;;;;;1909865;75;21080;-68
2021/04/03 09:39:50;;;;;;;1.07;0.98;;;10.60;99.90;;;;;;1908604;75;21080;-73
2021/04/03 09:42:16;;;;;;;1.40;1.02;;;10.30;99.90;;;;;;1911986;74;21154;-72
2021/04/03 09:44:42;;;;;;;2.37;1.15;;;10.50;99.90;;;;;;1906186;74;21072;-70
2021/04/03 09:47:08;;;;;;;4.25;1.40;;;10.20;99.90;;;;;;1910825;74;21088;-81
2021/04/03 09:49:35;;;;;;;3.80;1.00;;;9.90;99.90;;;;;;1908280;75;21079;-72
2021/04/03 09:52:01;;;;;;;3.95;1.50;;;10.10;99.90;;;;;;1912290;74;21091;-73
2021/04/03 09:54:27;;;;;;;2.47;1.22;;;10.70;99.90;;;;;;1914469;75;21171;-73
2021/04/03 09:56:53;;;;;;;2.25;1.35;;;11.10;99.90;;;;;;1910657;75;21133;-72
2021/04/03 09:59:20;;;;;;;6.12;1.20;;;10.90;99.90;;;;;;1909631;74;21196;-73
2021/04/03 10:01:46;;;;;;;6.45;0.90;;;11.10;99.90;;;;;;1910090;74;21146;-72
2021/04/03 10:04:12;;;;;;;7.97;1.20;;;10.80;99.90;;;;;;1915566;74;21182;-73
2021/04/03 10:06:38;;;;;;;4.67;1.15;;;10.50;99.90;;;;;;1912924;75;21049;-72
2021/04/03 10:09:04;;;;;;;7.17;1.27;;;11.10;99.90;;;;;;1907836;74;21154;-73
2021/04/03 10:11:30;;;;;;;2.92;1.27;;;11.00;99.90;;;;;;1909684;74;21181;-73
2021/04/03 10:13:56;;;;;;;6.25;1.20;;;10.50;99.90;;;;;;1912920;74;21072;-73
2021/04/03 10:16:23;;;;;;;2.25;1.00;;;11.40;99.90;;;;;;1910432;75;21057;-73
2021/04/03 10:18:49;;;;;;;3.15;1.57;;;12.10;99.90;;;;;;1910421;75;21139;-72
2021/04/03 10:21:15;;;;;;;1.17;1.07;;;12.60;99.90;;;;;;1912046;74;21149;-74
2021/04/03 10:23:41;;;;;;;2.40;1.10;;;12.30;99.50;;;;;;1914026;74;21073;-73
2021/04/03 10:26:07;;;;;;;1.95;0.93;;;11.80;99.90;;;;;;1915017;75;21234;-72
2021/04/03 10:28:33;;;;;;;6.47;1.30;;;12.20;99.00;;;;;;1915045;75;21207;-75
2021/04/03 10:30:59;;;;;;;3.47;0.90;;;12.50;99.90;;;;;;1913985;75;21526;-74
2021/04/03 10:33:25;;;;;;;1.37;0.53;;;12.70;99.50;;;;;;1908484;74;21496;-79
2021/04/03 10:35:52;;;;;;;2.30;0.68;;;12.90;95.70;;;;;;1915850;74;21488;-74
2021/04/03 10:38:18;;;;;;;1.77;0.90;;;12.80;95.50;;;;;;1909590;74;21449;-75
2021/04/03 10:40:44;;;;;;;4.45;1.17;;;12.80;95.30;;;;;;1903850;74;21593;-75
2021/04/03 10:43:10;;;;;;;2.30;1.32;;;11.60;97.10;;;;;;1912020;74;21084;-75
2021/04/03 10:45:36;;;;;;;1.30;1.00;;;11.90;99.00;;;;;;1910743;74;21149;-75
2021/04/03 10:48:02;;;;;;;1.60;0.80;;;12.90;95.90;;;;;;1915675;75;21049;-75
2021/04/03 10:50:28;;;;;;;2.20;1.10;;;12.20;94.30;;;;;;1908735;74;21127;-78
2021/04/03 10:52:54;;;;;;;3.70;1.10;;;11.70;95.20;;;;;;1910746;74;21067;-77
2021/04/03 10:55:21;;;;;;;2.77;1.32;;;12.10;96.40;;;;;;1910941;74;21076;-77
2021/04/03 10:57:47;;;;;;;2.15;1.07;;;12.40;95.80;;;;;;1910092;75;21045;-77
2021/04/03 11:00:13;;;;;;;2.72;1.10;;;11.60;97.40;;;;;;1909697;75;21138;-77
2021/04/03 11:02:39;;;;;;;5.92;1.47;;;11.90;97.40;;;;;;1910996;74;21204;-77
2021/04/03 11:05:05;;;;;;;4.37;1.12;;;12.30;97.30;;;;;;1914149;74;21080;-77
2021/04/03 11:07:31;;;;;;;7.35;1.40;;;12.80;97.30;;;;;;1911727;74;21045;-75
2021/04/03 11:09:57;;;;;;;2.25;1.10;;;13.10;97.00;;;;;;1913693;75;21149;-75
2021/04/03 11:12:23;;;;;;;2.35;1.35;;;12.40;97.20;;;;;;1907051;74;21145;-73
2021/04/03 11:14:50;;;;;;;5.53;1.20;;;12.10;97.90;;;;;;1909342;74;21080;-74
2021/04/03 11:17:16;;;;;;;5.12;1.57;;;11.60;99.30;;;;;;1911835;74;21582;-75
2021/04/03 11:19:42;;;;;;;6.20;1.82;;;11.20;98.70;;;;;;1909708;74;21071;-75
2021/04/03 11:22:08;;;;;;;2.30;1.20;;;11.20;99.60;;;;;;1909807;74;21448;-77
2021/04/03 11:24:34;;;;;;;4.33;1.25;;;11.50;99.60;;;;;;1909598;74;21142;-75
2021/04/03 11:27:01;;;;;;;4.58;1.50;;;11.90;98.50;;;;;;1913174;75;21120;-74
2021/04/03 11:29:27;;;;;;;2.25;1.00;;;12.20;97.50;;;;;;1912976;74;21669;-75
2021/04/03 11:31:53;;;;;;;5.97;1.80;;;12.20;96.00;;;;;;1910460;74;21445;-75
2021/04/03 11:34:19;;;;;;;7.00;1.20;;;11.60;96.00;;;;;;1903766;75;21533;-74
2021/04/03 11:36:45;;;;;;;3.50;0.90;;;11.10;97.20;;;;;;1913421;75;21488;-75
2021/04/03 11:39:11;;;;;;;1.17;0.90;;;11.40;96.60;;;;;;1908241;75;21076;-74
2021/04/03 11:41:37;;;;;;;1.82;1.17;;;11.90;96.90;;;;;;1906826;74;21127;-75
2021/04/03 11:44:04;;;;;;;3.33;1.00;;;13.40;94.50;;;;;;1912396;74;21061;-73
2021/04/03 11:46:30;;;;;;;1.90;0.95;;;14.00;91.50;;;;;;1909390;74;21200;-75
2021/04/03 11:48:57;;;;;;;1.60;0.70;;;13.40;89.90;;;;;;1911569;74;21134;-73
2021/04/03 11:51:23;;;;;;;2.90;1.05;;;12.90;89.20;;;;;;1909703;75;21207;-73
2021/04/03 11:53:49;;;;;;;2.67;0.90;;;12.20;91.20;;;;;;1911934;74;21075;-73
2021/04/03 11:56:16;;;;;;;4.55;1.30;;;11.90;92.50;;;;;;1908062;75;21080;-73
2021/04/03 11:58:42;;;;;;;4.87;0.93;;;11.70;94.30;;;;;;1911780;75;21084;-73
2021/04/03 12:01:09;;;;;;;3.77;1.20;;;11.40;95.00;;;;;;1908333;74;21262;-73
2021/04/03 12:03:35;;;;;;;2.10;1.30;;;10.80;96.20;;;;;;1910835;74;21079;-74
2021/04/03 12:06:01;;;;;;;5.15;1.07;;;10.50;97.50;;;;;;1915243;74;21088;-73
2021/04/03 12:08:28;;;;;;;3.12;1.45;;;10.60;97.70;;;;;;1909837;74;21107;-72
2021/04/03 12:10:54;;;;;;;1.95;1.07;;;10.30;98.30;;;;;;1909191;74;21095;-73
2021/04/03 12:13:20;;;;;;;2.17;1.52;;;11.00;97.80;;;;;;1909500;74;21154;-73
2021/04/03 12:15:46;;;;;;;1.47;0.80;;;12.50;95.30;;;;;;1910552;74;21091;-73
2021/04/03 12:18:12;;;;;;;0.95;0.72;;;14.00;91.70;;;;;;1915440;74;21049;-73
2021/04/03 12:20:38;;;;;;;2.47;1.10;;;14.60;87.10;;;;;;1908573;74;21520;-73
2021/04/03 12:23:05;;;;;;;2.52;0.82;;;15.80;83.00;;;;;;1913172;74;21087;-73
2021/04/03 12:25:31;;;;;;;0.70;0.70;;;16.00;77.00;;;;;;1914663;75;21079;-73
2021/04/03 12:27:57;;;;;;;2.15;1.05;;;15.10;74.80;;;;;;1911890;75;21087;-73
2021/04/03 12:30:23;;;;;;;8.68;0.80;;;13.70;75.60;;;;;;1909232;74;21049;-73
2021/04/03 12:32:49;;;;;;;8.43;0.98;;;13.10;78.60;;;;;;1908381;74;21072;-73
2021/04/03 12:35:15;;;;;;;0.62;0.62;;;12.30;82.00;;;;;;1909995;75;21157;-74
2021/04/03 12:37:41;;;;;;;2.60;0.80;;;12.50;84.80;;;;;;1909529;74;21145;-74
2021/04/03 12:40:08;;;;;;;1.85;1.00;;;12.30;85.00;;;;;;1911246;74;21057;-74
2021/04/03 12:42:34;;;;;;;1.02;0.80;;;12.10;86.00;;;;;;1914158;74;21546;-74
2021/04/03 12:45:00;;;;;;;1.80;1.15;;;12.20;86.40;;;;;;1907350;74;21551;-73
2021/04/03 12:47:26;;;;;;;1.98;1.22;;;11.80;87.50;;;;;;1913244;75;21202;-74